Time;durP1;ratioP1;P1;durP2;ratioP2;P2;SDS_P1;SDS_P2;PMS_P1;PMS_P2;Temp;Humidity;BMP_temperature;BMP_pressure;BME280_temperature;BME280_humidity;BME280_pressure;Samples;Min_cycle;Max_cycle;Signal;HPM_P1;HPM_P2
2023/09/15 00:00:06;;;;;;;15.27;11.10;;;;;;;;;;5081808;28;20053;-58
2023/09/15 00:02:33;;;;;;;12.10;10.23;;;;;;;;;;5082850;28;20064;-57
2023/09/15 00:05:00;;;;;;;14.80;10.73;;;;;;;;;;5079942;28;20677;-58
2023/09/15 00:07:26;;;;;;;14.13;10.95;;;;;;;;;;5082495;28;20126;-58
2023/09/15 00:09:53;;;;;;;12.98;10.57;;;;;;;;;;5082270;28;20117;-58
2023/09/15 00:12:19;;;;;;;13.48;10.32;;;;;;;;;;5083019;28;20087;-59
2023/09/15 00:14:46;;;;;;;13.70;11.13;;;;;;;;;;5082605;28;20431;-58
2023/09/15 00:17:12;;;;;;;11.63;10.02;;;;;;;;;;5082878;28;20088;-57
2023/09/15 00:19:41;;;;;;;18.17;10.25;;;;;;;;;;5062412;28;20135;-58
2023/09/15 00:22:08;;;;;;;13.13;10.00;;;;;;;;;;5081905;28;20072;-57
2023/09/15 00:24:35;;;;;;;11.85;9.63;;;;;;;;;;5062916;28;20052;-57
2023/09/15 00:27:01;;;;;;;11.30;9.25;;;;;;;;;;5082778;28;20083;-57
2023/09/15 00:29:28;;;;;;;14.30;9.77;;;;;;;;;;5082819;28;20533;-58
2023/09/15 00:31:55;;;;;;;21.90;10.18;;;;;;;;;;5082813;28;20079;-58
2023/09/15 00:34:21;;;;;;;14.18;10.57;;;;;;;;;;5080851;28;20049;-57
2023/09/15 00:36:49;;;;;;;11.25;9.43;;;;;;;;;;5081866;28;20516;-57
2023/09/15 00:39:15;;;;;;;12.73;10.73;;;;;;;;;;5081293;28;20057;-56
2023/09/15 00:41:42;;;;;;;12.43;9.77;;;;;;;;;;5082896;28;20490;-58
2023/09/15 00:44:08;;;;;;;14.77;9.80;;;;;;;;;;5080794;28;20057;-58
2023/09/15 00:46:35;;;;;;;14.93;9.60;;;;;;;;;;5082362;28;20049;-57
2023/09/15 00:49:02;;;;;;;14.80;9.70;;;;;;;;;;5081924;28;20140;-57
2023/09/15 00:51:30;;;;;;;13.45;9.80;;;;;;;;;;5082197;28;20056;-58
2023/09/15 00:53:57;;;;;;;11.02;9.93;;;;;;;;;;5080690;28;20087;-56
2023/09/15 00:56:24;;;;;;;12.32;9.90;;;;;;;;;;5081415;28;20569;-58
2023/09/15 00:58:50;;;;;;;16.55;10.93;;;;;;;;;;5082205;28;20060;-59
2023/09/15 01:01:18;;;;;;;13.30;10.20;;;;;;;;;;5064304;28;20087;-57
2023/09/15 01:03:45;;;;;;;11.68;8.98;;;;;;;;;;5082904;28;20057;-58
2023/09/15 01:06:13;;;;;;;16.05;10.38;;;;;;;;;;5065299;28;20517;-58
2023/09/15 01:08:41;;;;;;;14.38;10.00;;;;;;;;;;5084065;28;20052;-57
2023/09/15 01:11:07;;;;;;;12.32;10.02;;;;;;;;;;5085476;28;20084;-56
2023/09/15 01:13:34;;;;;;;13.50;9.77;;;;;;;;;;5084942;28;20074;-57
2023/09/15 01:16:04;;;;;;;10.40;9.38;;;;;;;;;;5084272;28;20063;-59
2023/09/15 01:18:44;;;;;;;17.02;10.50;;;;;;;;;;5085759;28;20045;-58
2023/09/15 01:21:30;;;;;;;13.00;10.18;;;;;;;;;;5085675;28;20056;-59
2023/09/15 01:24:05;;;;;;;11.40;10.25;;;;;;;;;;5083899;28;20059;-58
2023/09/15 01:26:38;;;;;;;12.98;10.10;;;;;;;;;;5084703;28;20062;-58
2023/09/15 01:29:23;;;;;;;13.65;9.15;;;;;;;;;;5084863;28;20084;-56
2023/09/15 01:31:50;;;;;;;12.32;10.07;;;;;;;;;;5085244;28;20060;-59
2023/09/15 01:34:16;;;;;;;11.57;9.88;;;;;;;;;;5083129;28;20060;-58
2023/09/15 01:36:46;;;;;;;12.88;10.02;;;;;;;;;;5066625;28;20110;-58
2023/09/15 01:39:13;;;;;;;15.07;10.35;;;;;;;;;;5084967;28;20109;-56
2023/09/15 01:41:39;;;;;;;12.57;9.27;;;;;;;;;;5084847;28;20056;-58
2023/09/15 01:44:05;;;;;;;11.60;9.48;;;;;;;;;;5082868;28;20098;-54
2023/09/15 01:46:32;;;;;;;12.93;8.98;;;;;;;;;;5085575;28;20364;-56
2023/09/15 01:48:59;;;;;;;13.23;9.88;;;;;;;;;;5084708;28;20057;-59
2023/09/15 01:51:25;;;;;;;11.73;8.93;;;;;;;;;;5084151;28;20940;-58
2023/09/15 01:53:52;;;;;;;14.13;10.02;;;;;;;;;;5064635;28;20371;-58
2023/09/15 01:56:19;;;;;;;11.38;9.50;;;;;;;;;;5084313;28;20056;-58
2023/09/15 01:58:45;;;;;;;17.90;9.73;;;;;;;;;;5084634;28;20064;-58
2023/09/15 02:01:12;;;;;;;13.25;9.52;;;;;;;;;;5084512;28;20053;-59
2023/09/15 02:03:39;;;;;;;11.70;9.60;;;;;;;;;;5084039;28;20080;-60
2023/09/15 02:06:05;;;;;;;15.70;9.55;;;;;;;;;;5082993;28;20088;-57
2023/09/15 02:08:32;;;;;;;12.48;9.73;;;;;;;;;;5084873;28;20060;-57
2023/09/15 02:10:59;;;;;;;14.20;10.40;;;;;;;;;;5082545;28;20053;-58
2023/09/15 02:13:25;;;;;;;10.68;9.68;;;;;;;;;;5084512;28;20088;-56
2023/09/15 02:15:53;;;;;;;11.90;9.63;;;;;;;;;;5084201;28;20049;-56
2023/09/15 02:18:20;;;;;;;13.63;9.45;;;;;;;;;;5084706;28;20062;-59
2023/09/15 02:20:54;;;;;;;10.55;9.35;;;;;;;;;;5083892;28;20053;-58
2023/09/15 02:23:21;;;;;;;13.18;9.57;;;;;;;;;;5084597;28;20052;-58
2023/09/15 02:25:47;;;;;;;13.77;9.68;;;;;;;;;;5084471;28;20564;-58
2023/09/15 02:28:14;;;;;;;11.95;9.20;;;;;;;;;;5083453;28;20060;-57
2023/09/15 02:30:40;;;;;;;11.82;9.45;;;;;;;;;;5083588;28;20082;-58
2023/09/15 02:33:07;;;;;;;15.88;9.60;;;;;;;;;;5083059;28;20053;-58
2023/09/15 02:35:33;;;;;;;12.18;9.45;;;;;;;;;;5084184;28;20647;-60
2023/09/15 02:38:03;;;;;;;14.18;9.50;;;;;;;;;;5084092;28;20079;-58
2023/09/15 02:40:30;;;;;;;11.35;9.40;;;;;;;;;;5064206;28;20059;-59
2023/09/15 02:42:57;;;;;;;14.80;9.75;;;;;;;;;;5083847;28;20057;-60
2023/09/15 02:45:23;;;;;;;16.50;10.07;;;;;;;;;;5083249;28;20048;-57
2023/09/15 02:47:50;;;;;;;12.85;9.38;;;;;;;;;;5083658;28;20048;-58
2023/09/15 02:50:16;;;;;;;15.07;10.25;;;;;;;;;;5082940;28;20107;-58
2023/09/15 02:52:43;;;;;;;11.98;9.63;;;;;;;;;;5083801;28;20044;-58
2023/09/15 02:55:09;;;;;;;13.98;9.38;;;;;;;;;;5084114;28;20570;-58
2023/09/15 02:57:36;;;;;;;16.13;9.38;;;;;;;;;;5083211;28;20536;-58
2023/09/15 03:00:07;;;;;;;11.50;9.20;;;;;;;;;;5082906;28;20144;-58
2023/09/15 03:02:35;;;;;;;12.25;9.55;;;;;;;;;;5084055;28;20056;-58
2023/09/15 03:05:04;;;;;;;12.93;9.25;;;;;;;;;;5083674;28;20460;-59
2023/09/15 03:07:32;;;;;;;12.95;9.90;;;;;;;;;;5084315;28;20106;-58
2023/09/15 03:09:58;;;;;;;14.95;8.93;;;;;;;;;;5082648;28;20334;-58
2023/09/15 03:12:25;;;;;;;13.25;8.88;;;;;;;;;;5083296;28;20577;-58
2023/09/15 03:14:52;;;;;;;16.35;9.35;;;;;;;;;;5062960;28;20516;-58
2023/09/15 03:17:21;;;;;;;11.43;9.40;;;;;;;;;;5063127;28;20522;-58
2023/09/15 03:19:48;;;;;;;10.88;8.40;;;;;;;;;;5069096;28;20083;-59
2023/09/15 03:22:14;;;;;;;13.05;8.50;;;;;;;;;;5083569;28;20084;-58
2023/09/15 03:24:42;;;;;;;14.88;9.38;;;;;;;;;;5064395;28;20518;-58
2023/09/15 03:27:09;;;;;;;11.52;8.32;;;;;;;;;;5081374;28;20503;-58
2023/09/15 03:29:35;;;;;;;14.02;8.88;;;;;;;;;;5082464;28;20511;-56
2023/09/15 03:32:02;;;;;;;11.48;8.52;;;;;;;;;;5083752;28;20048;-58
2023/09/15 03:34:29;;;;;;;14.52;8.18;;;;;;;;;;5083584;28;20053;-57
2023/09/15 03:36:55;;;;;;;11.10;8.93;;;;;;;;;;5081542;28;20057;-58
2023/09/15 03:39:22;;;;;;;10.60;8.98;;;;;;;;;;5082369;28;20056;-59
2023/09/15 03:41:48;;;;;;;12.23;8.27;;;;;;;;;;5082480;28;20055;-57
2023/09/15 03:44:14;;;;;;;13.02;8.32;;;;;;;;;;5083001;28;20053;-58
2023/09/15 03:46:41;;;;;;;14.10;8.95;;;;;;;;;;5081535;28;20048;-58
2023/09/15 03:49:07;;;;;;;11.27;8.77;;;;;;;;;;5082795;28;20056;-58
2023/09/15 03:51:34;;;;;;;9.50;8.27;;;;;;;;;;5084209;28;20127;-58
2023/09/15 03:54:00;;;;;;;12.00;8.27;;;;;;;;;;5082300;28;20633;-58
2023/09/15 03:56:27;;;;;;;13.68;8.35;;;;;;;;;;5082272;28;20517;-57
2023/09/15 03:58:55;;;;;;;11.05;8.10;;;;;;;;;;5081897;28;20055;-58
2023/09/15 04:01:23;;;;;;;11.05;8.38;;;;;;;;;;5083173;28;20397;-59
2023/09/15 04:03:50;;;;;;;12.18;7.78;;;;;;;;;;5082913;28;20123;-56
2023/09/15 04:06:17;;;;;;;8.80;7.72;;;;;;;;;;5081966;28;20049;-58
2023/09/15 04:08:45;;;;;;;9.93;8.05;;;;;;;;;;5080190;28;20110;-58
2023/09/15 04:11:12;;;;;;;10.32;7.38;;;;;;;;;;5082863;28;20498;-57
2023/09/15 04:13:38;;;;;;;11.73;8.15;;;;;;;;;;5082386;28;20118;-58
2023/09/15 04:16:05;;;;;;;14.18;8.10;;;;;;;;;;5083039;28;20139;-54
2023/09/15 04:18:32;;;;;;;12.73;7.35;;;;;;;;;;5081118;28;20538;-57
2023/09/15 04:20:58;;;;;;;8.25;7.13;;;;;;;;;;5063937;28;20057;-58
2023/09/15 04:23:25;;;;;;;14.25;7.72;;;;;;;;;;5080146;28;20060;-58
2023/09/15 04:25:51;;;;;;;14.52;7.57;;;;;;;;;;5082897;28;20164;-58
2023/09/15 04:28:18;;;;;;;10.70;7.45;;;;;;;;;;5081102;28;20052;-58
2023/09/15 04:30:44;;;;;;;14.35;7.95;;;;;;;;;;5081299;28;20139;-58
2023/09/15 04:33:11;;;;;;;9.32;7.60;;;;;;;;;;5081616;28;20520;-58
2023/09/15 04:35:38;;;;;;;14.93;7.50;;;;;;;;;;5081087;28;20063;-58
2023/09/15 04:38:04;;;;;;;13.98;7.57;;;;;;;;;;5082408;28;20136;-58
2023/09/15 04:40:31;;;;;;;10.18;7.53;;;;;;;;;;5081152;28;20052;-58
2023/09/15 04:42:59;;;;;;;10.40;7.30;;;;;;;;;;5085256;28;20053;-57
2023/09/15 04:45:26;;;;;;;13.13;7.85;;;;;;;;;;5080271;28;20597;-58
2023/09/15 04:47:52;;;;;;;20.33;8.13;;;;;;;;;;5085333;28;20063;-58
2023/09/15 04:50:19;;;;;;;13.35;8.43;;;;;;;;;;5085762;28;20057;-58
2023/09/15 04:52:45;;;;;;;8.80;6.88;;;;;;;;;;5085071;28;20052;-58
2023/09/15 04:55:11;;;;;;;11.70;6.85;;;;;;;;;;5083733;28;20091;-58
2023/09/15 04:57:38;;;;;;;13.30;7.43;;;;;;;;;;5085276;28;20068;-58
2023/09/15 05:00:12;;;;;;;11.07;7.22;;;;;;;;;;5086053;28;20088;-58
2023/09/15 05:02:42;;;;;;;12.32;7.18;;;;;;;;;;5084009;28;20517;-59
2023/09/15 05:05:08;;;;;;;9.50;7.18;;;;;;;;;;5084973;28;20345;-58
2023/09/15 05:07:35;;;;;;;10.60;6.70;;;;;;;;;;5084316;28;20064;-58
2023/09/15 05:10:02;;;;;;;10.52;7.38;;;;;;;;;;5083607;28;20079;-57
2023/09/15 05:12:29;;;;;;;11.88;7.45;;;;;;;;;;5082112;28;20592;-57
2023/09/15 05:14:55;;;;;;;12.75;6.70;;;;;;;;;;5085262;28;20456;-59
2023/09/15 05:17:22;;;;;;;10.68;6.18;;;;;;;;;;5085123;28;20063;-59
2023/09/15 05:19:51;;;;;;;8.70;7.03;;;;;;;;;;5084026;28;20052;-58
2023/09/15 05:22:17;;;;;;;11.88;7.22;;;;;;;;;;5084208;28;20060;-59
2023/09/15 05:24:44;;;;;;;11.15;6.60;;;;;;;;;;5082934;28;20052;-59
2023/09/15 05:27:10;;;;;;;10.88;7.25;;;;;;;;;;5085179;28;20087;-58
2023/09/15 05:29:37;;;;;;;12.73;6.80;;;;;;;;;;5085544;28;20560;-58
2023/09/15 05:32:03;;;;;;;11.00;6.60;;;;;;;;;;5083060;28;20135;-57
2023/09/15 05:34:31;;;;;;;11.82;7.10;;;;;;;;;;5085628;28;20045;-57
2023/09/15 05:36:58;;;;;;;8.98;6.75;;;;;;;;;;5082001;28;20155;-58
2023/09/15 05:39:24;;;;;;;8.95;6.30;;;;;;;;;;5083274;28;20080;-59
2023/09/15 05:41:50;;;;;;;8.90;6.55;;;;;;;;;;5084119;28;20537;-59
2023/09/15 05:44:17;;;;;;;13.80;7.32;;;;;;;;;;5085162;28;20493;-59
2023/09/15 05:46:43;;;;;;;12.35;6.95;;;;;;;;;;5066968;28;20633;-58
2023/09/15 05:49:10;;;;;;;9.65;6.90;;;;;;;;;;5083053;28;20049;-58
2023/09/15 05:51:36;;;;;;;10.52;6.63;;;;;;;;;;5084880;28;20136;-58
2023/09/15 05:54:03;;;;;;;10.48;6.80;;;;;;;;;;5083909;28;20055;-59
2023/09/15 05:56:30;;;;;;;10.68;7.05;;;;;;;;;;5084825;28;20139;-58
2023/09/15 05:58:58;;;;;;;10.48;6.32;;;;;;;;;;5084584;28;20161;-56
2023/09/15 06:01:24;;;;;;;10.27;7.40;;;;;;;;;;5084671;28;20346;-59
2023/09/15 06:03:51;;;;;;;15.02;7.03;;;;;;;;;;5082670;28;20052;-59
2023/09/15 06:06:18;;;;;;;10.52;7.07;;;;;;;;;;5084471;28;20211;-58
2023/09/15 06:08:44;;;;;;;10.38;6.70;;;;;;;;;;5084371;28;20154;-56
2023/09/15 06:11:11;;;;;;;14.85;6.25;;;;;;;;;;5083585;28;20086;-58
2023/09/15 06:13:37;;;;;;;8.80;6.38;;;;;;;;;;5084659;28;20088;-58
2023/09/15 06:16:05;;;;;;;10.80;6.35;;;;;;;;;;5084631;28;20084;-58
2023/09/15 06:18:33;;;;;;;9.40;6.55;;;;;;;;;;5084197;28;20653;-59
2023/09/15 06:20:59;;;;;;;8.90;6.75;;;;;;;;;;5084229;28;20137;-59
2023/09/15 06:23:26;;;;;;;10.52;6.40;;;;;;;;;;5084309;28;20056;-58
2023/09/15 06:25:52;;;;;;;9.85;6.65;;;;;;;;;;5075781;28;20079;-58
2023/09/15 06:28:18;;;;;;;13.23;6.95;;;;;;;;;;5084426;28;20048;-58
2023/09/15 06:30:48;;;;;;;11.15;7.00;;;;;;;;;;5084443;28;20052;-58
2023/09/15 06:33:14;;;;;;;18.05;7.50;;;;;;;;;;5082870;28;20526;-57
2023/09/15 06:35:41;;;;;;;10.15;6.70;;;;;;;;;;5065282;28;20513;-58
2023/09/15 06:38:09;;;;;;;13.52;6.63;;;;;;;;;;5081158;28;20531;-58
2023/09/15 06:40:35;;;;;;;9.50;6.13;;;;;;;;;;5076507;28;20080;-58
2023/09/15 06:43:04;;;;;;;9.18;6.35;;;;;;;;;;5082665;28;20057;-57
2023/09/15 06:45:31;;;;;;;9.52;6.30;;;;;;;;;;5084239;28;20136;-56
2023/09/15 06:48:01;;;;;;;10.98;6.72;;;;;;;;;;5083212;28;20082;-57
2023/09/15 06:50:28;;;;;;;9.63;6.57;;;;;;;;;;5082052;28;20079;-58
2023/09/15 06:52:54;;;;;;;12.55;6.53;;;;;;;;;;5081775;28;20450;-58
2023/09/15 06:55:20;;;;;;;10.85;6.75;;;;;;;;;;5083977;28;20521;-58
2023/09/15 06:57:47;;;;;;;12.02;6.28;;;;;;;;;;5083902;28;20602;-59
2023/09/15 07:00:14;;;;;;;8.98;6.20;;;;;;;;;;5079494;28;20059;-58
2023/09/15 07:02:40;;;;;;;8.80;6.18;;;;;;;;;;5081473;28;20060;-59
2023/09/15 07:05:07;;;;;;;10.68;6.72;;;;;;;;;;5076917;28;20511;-59
2023/09/15 07:07:33;;;;;;;10.30;6.97;;;;;;;;;;5075282;28;20072;-59
2023/09/15 07:10:01;;;;;;;9.18;6.65;;;;;;;;;;5077811;28;20049;-58
2023/09/15 07:12:27;;;;;;;28.98;7.60;;;;;;;;;;5082970;28;20052;-55
2023/09/15 07:14:54;;;;;;;18.13;6.38;;;;;;;;;;5081321;28;20063;-59
2023/09/15 07:17:20;;;;;;;8.95;6.57;;;;;;;;;;5079655;28;20480;-58
2023/09/15 07:19:47;;;;;;;10.85;6.05;;;;;;;;;;5078725;28;20136;-58
2023/09/15 07:22:13;;;;;;;10.40;6.07;;;;;;;;;;5082131;28;20057;-58
2023/09/15 07:24:42;;;;;;;8.70;5.82;;;;;;;;;;5083586;28;20055;-58
2023/09/15 07:27:09;;;;;;;10.15;6.30;;;;;;;;;;5082066;28;20602;-57
2023/09/15 07:29:36;;;;;;;8.25;5.93;;;;;;;;;;5083204;28;20060;-58
2023/09/15 07:32:03;;;;;;;13.70;6.25;;;;;;;;;;5065463;28;20052;-58
2023/09/15 07:34:29;;;;;;;16.98;6.45;;;;;;;;;;5082337;28;20048;-58
2023/09/15 07:36:56;;;;;;;9.82;5.53;;;;;;;;;;5079112;28;20059;-57
2023/09/15 07:39:22;;;;;;;14.57;6.50;;;;;;;;;;5083424;28;20065;-58
2023/09/15 07:41:49;;;;;;;10.20;5.93;;;;;;;;;;5083149;28;20091;-58
2023/09/15 07:44:15;;;;;;;12.52;6.13;;;;;;;;;;5065433;28;20053;-58
2023/09/15 07:46:42;;;;;;;10.63;6.15;;;;;;;;;;5083328;28;20503;-57
2023/09/15 07:49:08;;;;;;;17.83;6.07;;;;;;;;;;5083530;28;20048;-58
2023/09/15 07:51:35;;;;;;;10.63;7.30;;;;;;;;;;5083420;28;20056;-56
2023/09/15 07:54:02;;;;;;;13.18;6.72;;;;;;;;;;5083014;28;20048;-58
2023/09/15 07:56:28;;;;;;;14.13;6.38;;;;;;;;;;5069741;28;20438;-58
2023/09/15 07:58:55;;;;;;;13.75;6.90;;;;;;;;;;5076348;28;20473;-56
2023/09/15 08:01:21;;;;;;;9.18;6.38;;;;;;;;;;5080937;28;20106;-58
2023/09/15 08:03:48;;;;;;;10.65;6.15;;;;;;;;;;5081508;28;20060;-57
2023/09/15 08:06:15;;;;;;;11.18;6.47;;;;;;;;;;5082184;28;20143;-56
2023/09/15 08:08:42;;;;;;;8.57;6.10;;;;;;;;;;5081824;28;20060;-58
2023/09/15 08:11:09;;;;;;;10.23;7.07;;;;;;;;;;5081638;28;20052;-57
2023/09/15 08:13:36;;;;;;;15.05;7.10;;;;;;;;;;5066942;28;20052;-55
2023/09/15 08:16:02;;;;;;;18.85;6.50;;;;;;;;;;5085844;28;20045;-57
2023/09/15 08:18:29;;;;;;;8.40;6.28;;;;;;;;;;5085412;28;20532;-57
2023/09/15 08:20:55;;;;;;;13.50;6.75;;;;;;;;;;5067645;28;20065;-57
2023/09/15 08:23:22;;;;;;;21.13;6.65;;;;;;;;;;5085362;28;20048;-58
2023/09/15 08:25:48;;;;;;;16.42;7.93;;;;;;;;;;5085533;28;20056;-58
2023/09/15 08:28:15;;;;;;;14.15;6.65;;;;;;;;;;5084382;28;20056;-56
2023/09/15 08:30:44;;;;;;;7.85;6.38;;;;;;;;;;5083500;28;20529;-57
2023/09/15 08:33:10;;;;;;;10.85;7.20;;;;;;;;;;5085398;28;20126;-57
2023/09/15 08:35:39;;;;;;;13.02;6.72;;;;;;;;;;5085623;28;20049;-58
2023/09/15 08:38:06;;;;;;;11.13;7.43;;;;;;;;;;5062704;28;20131;-57
2023/09/15 08:40:40;;;;;;;12.63;6.53;;;;;;;;;;5074309;28;20066;-56
2023/09/15 08:43:06;;;;;;;13.23;6.78;;;;;;;;;;5084823;28;20129;-56
2023/09/15 08:45:33;;;;;;;13.55;6.57;;;;;;;;;;5085795;28;20055;-59
2023/09/15 08:48:03;;;;;;;16.88;7.03;;;;;;;;;;5085609;28;20084;-59
2023/09/15 08:50:32;;;;;;;11.60;6.97;;;;;;;;;;5084433;28;20658;-56
2023/09/15 08:52:59;;;;;;;12.80;6.65;;;;;;;;;;5084917;28;20084;-57
2023/09/15 08:55:26;;;;;;;9.75;7.00;;;;;;;;;;5085675;28;20517;-58
2023/09/15 08:57:53;;;;;;;17.25;6.85;;;;;;;;;;5084721;28;20056;-55
2023/09/15 09:00:20;;;;;;;13.52;7.07;;;;;;;;;;5083564;28;20091;-58
2023/09/15 09:02:49;;;;;;;10.05;6.60;;;;;;;;;;5083466;28;20083;-58
2023/09/15 09:05:16;;;;;;;10.85;7.47;;;;;;;;;;5083659;28;20892;-59
2023/09/15 09:07:43;;;;;;;15.02;7.35;;;;;;;;;;5084670;28;20503;-56
2023/09/15 09:10:10;;;;;;;16.65;8.07;;;;;;;;;;5084791;28;20554;-59
2023/09/15 09:12:36;;;;;;;8.75;6.97;;;;;;;;;;5085817;28;20087;-56
2023/09/15 09:15:03;;;;;;;10.90;7.47;;;;;;;;;;5085185;28;20458;-58
2023/09/15 09:17:31;;;;;;;11.10;7.20;;;;;;;;;;5066263;28;20505;-55
2023/09/15 09:19:57;;;;;;;11.48;7.60;;;;;;;;;;5084796;28;20091;-58
2023/09/15 09:22:24;;;;;;;15.82;7.95;;;;;;;;;;5084390;28;20099;-58
2023/09/15 09:24:55;;;;;;;12.75;7.88;;;;;;;;;;5083077;28;20142;-59
2023/09/15 09:27:32;;;;;;;12.43;6.88;;;;;;;;;;5084811;28;20131;-58
2023/09/15 09:29:58;;;;;;;26.00;7.00;;;;;;;;;;5084055;28;20056;-56
2023/09/15 09:32:25;;;;;;;12.85;8.23;;;;;;;;;;5082632;28;20778;-58
2023/09/15 09:34:52;;;;;;;12.23;7.13;;;;;;;;;;5081333;28;20049;-58
2023/09/15 09:37:23;;;;;;;13.93;6.55;;;;;;;;;;5082074;28;20053;-57
2023/09/15 09:39:49;;;;;;;11.15;6.40;;;;;;;;;;5082682;28;20579;-57
2023/09/15 09:42:16;;;;;;;12.15;7.68;;;;;;;;;;5083827;28;20530;-58
2023/09/15 09:44:43;;;;;;;10.45;7.03;;;;;;;;;;5083210;28;20510;-58
2023/09/15 09:47:09;;;;;;;9.60;7.03;;;;;;;;;;5065988;28;20102;-58
2023/09/15 09:49:36;;;;;;;9.10;6.15;;;;;;;;;;5084190;28;20496;-53
2023/09/15 09:52:03;;;;;;;8.98;6.53;;;;;;;;;;5085547;28;20542;-57
2023/09/15 09:54:33;;;;;;;12.85;7.88;;;;;;;;;;5084109;28;20531;-58
2023/09/15 09:57:01;;;;;;;10.13;6.78;;;;;;;;;;5084575;28;20052;-57
2023/09/15 09:59:28;;;;;;;11.20;6.57;;;;;;;;;;5082927;28;20167;-58
2023/09/15 10:01:54;;;;;;;11.27;6.72;;;;;;;;;;5081786;28;20076;-57
2023/09/15 10:04:22;;;;;;;12.65;7.00;;;;;;;;;;5083721;28;20052;-59
2023/09/15 10:06:49;;;;;;;9.65;6.80;;;;;;;;;;5082752;28;20059;-58
2023/09/15 10:09:15;;;;;;;11.73;6.32;;;;;;;;;;5083038;28;20141;-58
2023/09/15 10:11:43;;;;;;;11.00;6.75;;;;;;;;;;5083780;28;20056;-58
2023/09/15 10:14:09;;;;;;;10.65;7.03;;;;;;;;;;5083421;28;20052;-58
2023/09/15 10:16:36;;;;;;;10.05;6.90;;;;;;;;;;5084276;28;20049;-56
2023/09/15 10:19:03;;;;;;;11.52;6.88;;;;;;;;;;5082904;28;20056;-58
2023/09/15 10:21:32;;;;;;;10.55;6.05;;;;;;;;;;5085277;28;20668;-58
2023/09/15 10:24:09;;;;;;;12.32;6.43;;;;;;;;;;5083556;28;20147;-59
2023/09/15 10:26:41;;;;;;;11.82;6.65;;;;;;;;;;5084144;28;20052;-53
2023/09/15 10:29:08;;;;;;;10.75;6.50;;;;;;;;;;5064924;28;20069;-52
2023/09/15 10:31:35;;;;;;;10.95;5.93;;;;;;;;;;5084986;28;20060;-58
2023/09/15 10:34:02;;;;;;;10.57;5.82;;;;;;;;;;5083967;28;20063;-59
2023/09/15 10:36:29;;;;;;;8.88;5.80;;;;;;;;;;5082063;28;20054;-57
2023/09/15 10:38:57;;;;;;;10.10;6.07;;;;;;;;;;5073333;28;20489;-58
2023/09/15 10:41:29;;;;;;;7.97;6.07;;;;;;;;;;5082325;28;20102;-58
2023/09/15 10:43:56;;;;;;;10.13;6.10;;;;;;;;;;5083298;28;20530;-58
2023/09/15 10:46:33;;;;;;;8.98;6.00;;;;;;;;;;5084631;28;20446;-57
2023/09/15 10:49:11;;;;;;;11.48;6.32;;;;;;;;;;5083441;28;20518;-58
2023/09/15 10:51:40;;;;;;;10.57;5.38;;;;;;;;;;5082213;28;20064;-57
2023/09/15 10:54:07;;;;;;;8.93;4.75;;;;;;;;;;5079783;28;20048;-58
2023/09/15 10:56:33;;;;;;;10.60;5.65;;;;;;;;;;5080540;28;20076;-58
2023/09/15 10:59:01;;;;;;;8.32;5.15;;;;;;;;;;5075877;28;20063;-56
2023/09/15 11:01:28;;;;;;;6.90;5.22;;;;;;;;;;5071618;28;20084;-58
2023/09/15 11:03:55;;;;;;;7.38;5.15;;;;;;;;;;5065116;28;20102;-57
2023/09/15 11:06:22;;;;;;;6.68;5.47;;;;;;;;;;5083953;28;20107;-57
2023/09/15 11:08:49;;;;;;;9.25;5.55;;;;;;;;;;5083788;28;20060;-58
2023/09/15 11:11:17;;;;;;;10.65;5.32;;;;;;;;;;5064226;28;20092;-57
2023/09/15 11:13:44;;;;;;;8.20;4.72;;;;;;;;;;5076816;28;20477;-56
2023/09/15 11:16:10;;;;;;;9.07;5.18;;;;;;;;;;5080849;28;20048;-58
2023/09/15 11:18:37;;;;;;;10.43;4.97;;;;;;;;;;5079216;28;20140;-56
2023/09/15 11:21:05;;;;;;;8.70;5.18;;;;;;;;;;5083033;28;20052;-58
2023/09/15 11:23:32;;;;;;;11.55;5.78;;;;;;;;;;5083487;28;20560;-56
2023/09/15 11:26:04;;;;;;;5.85;4.50;;;;;;;;;;5066537;28;20495;-57
2023/09/15 11:28:47;;;;;;;11.27;4.47;;;;;;;;;;5083087;28;20067;-57
2023/09/15 11:31:13;;;;;;;8.20;5.35;;;;;;;;;;5082285;28;20135;-59
2023/09/15 11:33:44;;;;;;;10.65;4.47;;;;;;;;;;5063778;28;20055;-57
2023/09/15 11:36:13;;;;;;;6.22;3.75;;;;;;;;;;5080761;28;20087;-58
2023/09/15 11:38:43;;;;;;;6.53;4.78;;;;;;;;;;5063081;28;20056;-58
2023/09/15 11:41:11;;;;;;;7.07;3.78;;;;;;;;;;5079945;28;20053;-58
2023/09/15 11:43:39;;;;;;;5.78;3.75;;;;;;;;;;5079503;28;20059;-57
2023/09/15 11:46:07;;;;;;;10.02;4.00;;;;;;;;;;5082593;28;20056;-56
2023/09/15 11:48:38;;;;;;;7.35;4.88;;;;;;;;;;5081611;28;20420;-57
2023/09/15 11:51:11;;;;;;;9.68;4.38;;;;;;;;;;5083189;28;20048;-57
2023/09/15 11:53:37;;;;;;;6.10;4.03;;;;;;;;;;5080919;28;20059;-58
2023/09/15 11:56:04;;;;;;;6.70;4.00;;;;;;;;;;5079817;28;20072;-56
2023/09/15 11:58:32;;;;;;;6.00;3.78;;;;;;;;;;5065242;28;20474;-57
2023/09/15 12:01:01;;;;;;;5.13;3.97;;;;;;;;;;5075598;28;20056;-59
2023/09/15 12:03:29;;;;;;;7.82;3.67;;;;;;;;;;5071407;28;20053;-58
2023/09/15 12:05:56;;;;;;;5.40;4.20;;;;;;;;;;5077186;28;20547;-58
2023/09/15 12:08:23;;;;;;;5.75;4.35;;;;;;;;;;5065352;28;20503;-58
2023/09/15 12:10:49;;;;;;;7.63;4.25;;;;;;;;;;5048668;28;20049;-59
2023/09/15 12:13:38;;;;;;;;;;;;;;;;;;5072778;28;20079;-56
2023/09/15 12:16:05;;;;;;;6.95;4.57;;;;;;;;;;5072047;28;45779;-56
2023/09/15 12:18:36;;;;;;;6.93;3.97;;;;;;;;;;5072450;28;20495;-58
2023/09/15 12:21:10;;;;;;;5.60;3.65;;;;;;;;;;5082555;28;20143;-59
2023/09/15 12:23:36;;;;;;;7.20;4.22;;;;;;;;;;5073938;28;20060;-58
2023/09/15 12:26:03;;;;;;;6.88;3.78;;;;;;;;;;5075274;28;20057;-59
2023/09/15 12:28:30;;;;;;;6.90;3.83;;;;;;;;;;5076822;28;20579;-58
2023/09/15 12:31:00;;;;;;;7.15;3.78;;;;;;;;;;5061532;28;20512;-58
2023/09/15 12:33:26;;;;;;;4.43;3.15;;;;;;;;;;5063453;28;20515;-58
2023/09/15 12:35:53;;;;;;;5.65;2.90;;;;;;;;;;5068447;28;20114;-58
2023/09/15 12:38:19;;;;;;;5.57;3.25;;;;;;;;;;5061453;28;20080;-58
2023/09/15 12:40:47;;;;;;;3.95;3.03;;;;;;;;;;5078993;28;20135;-59
2023/09/15 12:43:13;;;;;;;5.53;2.83;;;;;;;;;;5079500;28;20135;-58
2023/09/15 12:45:40;;;;;;;5.18;2.70;;;;;;;;;;5081806;28;20610;-59
2023/09/15 12:48:09;;;;;;;5.10;2.58;;;;;;;;;;5070938;28;20506;-58
2023/09/15 12:50:35;;;;;;;5.57;2.45;;;;;;;;;;5060232;28;20190;-58
2023/09/15 12:53:02;;;;;;;3.95;2.70;;;;;;;;;;5081775;28;20515;-58
2023/09/15 12:55:28;;;;;;;11.52;3.60;;;;;;;;;;5076329;28;20104;-57
2023/09/15 12:57:55;;;;;;;7.88;3.08;;;;;;;;;;5080453;28;20052;-58
2023/09/15 13:00:21;;;;;;;7.38;2.55;;;;;;;;;;5081330;28;20052;-57
2023/09/15 13:02:48;;;;;;;5.03;2.58;;;;;;;;;;5080539;28;20103;-59
2023/09/15 13:05:14;;;;;;;8.40;3.00;;;;;;;;;;5064111;28;20140;-56
2023/09/15 13:07:43;;;;;;;4.75;3.05;;;;;;;;;;5055226;28;20138;-59
2023/09/15 13:10:13;;;;;;;6.13;3.50;;;;;;;;;;5077113;28;20059;-58
2023/09/15 13:12:40;;;;;;;4.57;3.22;;;;;;;;;;5064809;28;20483;-59
2023/09/15 13:15:07;;;;;;;4.50;3.00;;;;;;;;;;5082374;28;20056;-59
2023/09/15 13:17:34;;;;;;;4.55;3.30;;;;;;;;;;5079775;28;20048;-58
2023/09/15 13:20:07;;;;;;;4.25;3.05;;;;;;;;;;5081360;28;20053;-58
2023/09/15 13:22:36;;;;;;;3.30;2.33;;;;;;;;;;5081883;28;20056;-59
2023/09/15 13:25:04;;;;;;;5.28;2.92;;;;;;;;;;5066218;28;20053;-57
2023/09/15 13:27:30;;;;;;;4.32;2.80;;;;;;;;;;5072935;28;20052;-58
2023/09/15 13:29:59;;;;;;;3.20;2.70;;;;;;;;;;5082719;28;20053;-58
2023/09/15 13:32:26;;;;;;;5.25;2.78;;;;;;;;;;5064261;28;20080;-58
2023/09/15 13:34:54;;;;;;;4.55;2.45;;;;;;;;;;5069245;28;20148;-58
2023/09/15 13:37:24;;;;;;;5.45;3.53;;;;;;;;;;5081250;28;20454;-58
2023/09/15 13:39:51;;;;;;;5.32;3.60;;;;;;;;;;5063953;28;20476;-59
2023/09/15 13:42:27;;;;;;;9.23;3.67;;;;;;;;;;5071993;28;20045;-59
2023/09/15 13:44:54;;;;;;;5.30;3.20;;;;;;;;;;5063053;28;20083;-57
2023/09/15 13:47:20;;;;;;;4.93;2.90;;;;;;;;;;5083004;28;20049;-57
2023/09/15 13:49:46;;;;;;;7.15;3.83;;;;;;;;;;5066595;28;20148;-58
2023/09/15 13:52:13;;;;;;;4.75;3.03;;;;;;;;;;5069747;28;20060;-58
2023/09/15 13:54:39;;;;;;;9.88;3.35;;;;;;;;;;5076690;28;20083;-59
2023/09/15 13:57:06;;;;;;;5.45;2.83;;;;;;;;;;5083608;28;20064;-58
2023/09/15 13:59:47;;;;;;;4.65;2.80;;;;;;;;;;5069016;28;20053;-58
2023/09/15 14:02:13;;;;;;;4.53;2.83;;;;;;;;;;5081935;28;20124;-58
2023/09/15 14:04:40;;;;;;;5.47;3.13;;;;;;;;;;5072972;28;20604;-57
2023/09/15 14:07:06;;;;;;;5.15;3.05;;;;;;;;;;5063585;28;20056;-56
2023/09/15 14:09:34;;;;;;;6.10;3.60;;;;;;;;;;5074772;28;20110;-58
2023/09/15 14:12:01;;;;;;;7.53;3.58;;;;;;;;;;5078840;28;20114;-58
2023/09/15 14:14:28;;;;;;;5.63;3.70;;;;;;;;;;5081787;28;20063;-57
2023/09/15 14:16:54;;;;;;;4.55;3.22;;;;;;;;;;5075565;28;20084;-58
2023/09/15 14:19:21;;;;;;;5.93;3.08;;;;;;;;;;5071710;28;20071;-58
2023/09/15 14:21:48;;;;;;;6.93;3.42;;;;;;;;;;5083823;28;20060;-58
2023/09/15 14:24:15;;;;;;;7.43;3.55;;;;;;;;;;5083366;28;20056;-58
2023/09/15 14:26:41;;;;;;;7.00;3.20;;;;;;;;;;5083337;28;20541;-57
2023/09/15 14:29:08;;;;;;;7.70;3.30;;;;;;;;;;5077587;28;20141;-58
2023/09/15 14:31:35;;;;;;;4.90;3.10;;;;;;;;;;5082130;28;20052;-58
2023/09/15 14:34:02;;;;;;;5.65;3.60;;;;;;;;;;5064119;28;21016;-58